Time;durP1;ratioP1;P1;durP2;ratioP2;P2;SDS_P1;SDS_P2;PMS_P1;PMS_P2;Temp;Humidity;BMP_temperature;BMP_pressure;BME280_temperature;BME280_humidity;BME280_pressure;Samples;Min_cycle;Max_cycle;Signal;HPM_P1;HPM_P2
2023/10/19 00:02:38;;;;;;;15.20;9.87;;;;;;;;;;10511052;28;20903;-80
2023/10/19 00:07:41;;;;;;;16.02;10.77;;;;;;;;;;10509411;28;20979;-80
2023/10/19 00:12:52;;;;;;;15.00;9.90;;;;;;;;;;10506334;28;20410;-80
2023/10/19 00:17:56;;;;;;;16.30;9.68;;;;;;;;;;10509394;28;20449;-80
2023/10/19 00:22:58;;;;;;;14.38;9.55;;;;;;;;;;10508835;28;20400;-80
2023/10/19 00:28:04;;;;;;;14.73;9.55;;;;;;;;;;10527326;28;20420;-80
2023/10/19 00:33:16;;;;;;;16.50;10.18;;;;;;;;;;10516619;28;20896;-80
2023/10/19 00:43:44;;;;;;;15.23;9.68;;;;;;;;;;10523557;28;20392;-80
2023/10/19 00:48:49;;;;;;;14.70;9.82;;;;;;;;;;10517213;28;20408;-80
2023/10/19 00:53:52;;;;;;;13.65;9.35;;;;;;;;;;10517126;28;20908;-80
2023/10/19 00:58:59;;;;;;;15.60;9.93;;;;;;;;;;10523478;28;20400;-80
2023/10/19 01:04:04;;;;;;;14.33;9.03;;;;;;;;;;10522228;28;20888;-80
2023/10/19 01:09:06;;;;;;;14.63;8.90;;;;;;;;;;10520569;28;20926;-80
2023/10/19 01:14:27;;;;;;;14.50;9.93;;;;;;;;;;10519265;28;20420;-80
2023/10/19 01:19:31;;;;;;;16.10;10.63;;;;;;;;;;10517317;28;20493;-81
2023/10/19 01:24:41;;;;;;;15.88;9.63;;;;;;;;;;10518114;28;20457;-80
2023/10/19 01:29:44;;;;;;;17.40;9.98;;;;;;;;;;10518085;28;20398;-80
2023/10/19 01:34:46;;;;;;;14.83;9.93;;;;;;;;;;10518185;28;20499;-79
2023/10/19 01:39:50;;;;;;;13.88;9.48;;;;;;;;;;10520860;28;20414;-80
2023/10/19 01:44:54;;;;;;;17.27;10.50;;;;;;;;;;10518780;28;20404;-80
2023/10/19 01:49:56;;;;;;;16.75;10.40;;;;;;;;;;10519210;28;20849;-80
2023/10/19 01:55:07;;;;;;;16.00;9.85;;;;;;;;;;10519050;28;20499;-80
2023/10/19 02:00:17;;;;;;;17.17;10.23;;;;;;;;;;10518027;28;20525;-80
2023/10/19 02:05:22;;;;;;;17.98;10.70;;;;;;;;;;10517356;28;20400;-80
2023/10/19 02:10:27;;;;;;;18.42;10.52;;;;;;;;;;10519569;28;20402;-80
2023/10/19 02:15:29;;;;;;;17.65;10.73;;;;;;;;;;10516235;28;20414;-81
2023/10/19 02:20:32;;;;;;;18.58;10.65;;;;;;;;;;10517073;28;20895;-80
2023/10/19 02:25:37;;;;;;;16.20;10.27;;;;;;;;;;10513622;28;20397;-80
2023/10/19 02:30:40;;;;;;;14.43;9.60;;;;;;;;;;10518342;28;20435;-80
2023/10/19 02:35:42;;;;;;;17.77;10.30;;;;;;;;;;10507023;28;20454;-80
2023/10/19 02:40:46;;;;;;;15.30;10.00;;;;;;;;;;10510484;28;20396;-80
2023/10/19 02:45:48;;;;;;;16.55;10.25;;;;;;;;;;10508542;28;20432;-80
2023/10/19 02:50:51;;;;;;;16.27;10.10;;;;;;;;;;10517285;28;20404;-80
2023/10/19 02:55:55;;;;;;;16.60;9.63;;;;;;;;;;10516452;28;20492;-80
2023/10/19 03:01:00;;;;;;;16.10;10.07;;;;;;;;;;10515921;28;20422;-80
2023/10/19 03:06:03;;;;;;;15.25;9.43;;;;;;;;;;10513773;28;20396;-80
2023/10/19 03:11:09;;;;;;;15.27;9.55;;;;;;;;;;10516296;28;20886;-80
2023/10/19 03:16:11;;;;;;;15.13;9.52;;;;;;;;;;10513302;28;20424;-80
2023/10/19 03:21:16;;;;;;;15.88;9.60;;;;;;;;;;10513048;28;20473;-80
2023/10/19 03:26:30;;;;;;;14.18;9.60;;;;;;;;;;10511752;28;20478;-80
2023/10/19 03:31:33;;;;;;;14.23;9.35;;;;;;;;;;10509682;28;20397;-80
2023/10/19 03:36:36;;;;;;;13.60;9.38;;;;;;;;;;10516234;28;20460;-80
2023/10/19 03:41:42;;;;;;;12.88;8.57;;;;;;;;;;10516071;28;20457;-80
2023/10/19 03:46:54;;;;;;;14.68;9.52;;;;;;;;;;10519224;28;20435;-80
2023/10/19 03:52:00;;;;;;;14.43;8.67;;;;;;;;;;10523982;28;20507;-80
2023/10/19 03:57:11;;;;;;;13.07;8.55;;;;;;;;;;10520743;28;20447;-80
2023/10/19 04:02:16;;;;;;;13.77;8.68;;;;;;;;;;10523590;28;20399;-80
2023/10/19 04:07:21;;;;;;;11.15;7.60;;;;;;;;;;10522947;28;20473;-80
2023/10/19 04:12:25;;;;;;;12.85;7.97;;;;;;;;;;10521933;28;20959;-79
2023/10/19 04:17:27;;;;;;;13.07;8.23;;;;;;;;;;10520052;28;20571;-80
2023/10/19 04:22:30;;;;;;;10.95;7.75;;;;;;;;;;10521727;28;20404;-80
2023/10/19 04:27:35;;;;;;;11.27;8.02;;;;;;;;;;10520376;28;20404;-79
2023/10/19 04:32:39;;;;;;;11.03;7.50;;;;;;;;;;10516372;28;20404;-80
2023/10/19 04:37:42;;;;;;;11.75;7.45;;;;;;;;;;10519706;28;20481;-80
2023/10/19 04:42:46;;;;;;;10.60;7.27;;;;;;;;;;10523287;28;20397;-81
2023/10/19 04:47:52;;;;;;;12.27;6.75;;;;;;;;;;10522061;28;20406;-80
2023/10/19 04:52:55;;;;;;;11.10;7.35;;;;;;;;;;10521888;28;20457;-81
2023/10/19 04:57:58;;;;;;;9.80;6.88;;;;;;;;;;10519474;28;20439;-80
2023/10/19 05:03:01;;;;;;;11.90;6.73;;;;;;;;;;10509622;28;20773;-79
2023/10/19 05:08:04;;;;;;;11.23;6.53;;;;;;;;;;10505758;28;20739;-79
2023/10/19 05:13:08;;;;;;;9.65;6.13;;;;;;;;;;10508620;28;20404;-79
2023/10/19 05:18:10;;;;;;;9.25;5.90;;;;;;;;;;10509968;28;20902;-79
2023/10/19 05:23:13;;;;;;;8.32;5.72;;;;;;;;;;10505892;28;20471;-80
2023/10/19 05:28:16;;;;;;;9.43;5.40;;;;;;;;;;10510038;28;20402;-79
2023/10/19 05:33:20;;;;;;;7.50;4.90;;;;;;;;;;10511947;28;20403;-79
2023/10/19 05:38:23;;;;;;;7.78;4.70;;;;;;;;;;10510739;28;20838;-80
2023/10/19 05:43:28;;;;;;;7.88;4.40;;;;;;;;;;10509679;28;20773;-80
2023/10/19 05:48:30;;;;;;;7.27;4.10;;;;;;;;;;10499124;28;20500;-79
2023/10/19 05:53:32;;;;;;;5.93;4.40;;;;;;;;;;10509240;28;20426;-80
2023/10/19 05:58:36;;;;;;;4.80;3.70;;;;;;;;;;10512377;28;20517;-80
2023/10/19 06:03:38;;;;;;;5.37;3.43;;;;;;;;;;10512803;28;20843;-80
2023/10/19 06:08:41;;;;;;;4.97;3.30;;;;;;;;;;10511565;28;20398;-80
2023/10/19 06:13:45;;;;;;;4.72;3.60;;;;;;;;;;10507220;28;20436;-80
2023/10/19 06:18:48;;;;;;;3.85;3.45;;;;;;;;;;10497623;28;20454;-80
2023/10/19 06:23:52;;;;;;;5.70;3.43;;;;;;;;;;10506459;28;20468;-79
2023/10/19 06:28:59;;;;;;;4.32;3.20;;;;;;;;;;10503850;28;20821;-80
2023/10/19 06:34:01;;;;;;;5.93;3.90;;;;;;;;;;10502440;28;20439;-79
2023/10/19 06:39:05;;;;;;;5.05;3.75;;;;;;;;;;10500147;28;20525;-79
2023/10/19 06:44:09;;;;;;;5.40;3.53;;;;;;;;;;10508444;28;21637;-80
2023/10/19 06:49:14;;;;;;;5.18;3.88;;;;;;;;;;10508247;28;20451;-79
2023/10/19 06:54:16;;;;;;;5.03;3.22;;;;;;;;;;10504730;28;20440;-79
2023/10/19 06:59:20;;;;;;;5.63;3.90;;;;;;;;;;10502390;28;20454;-79
2023/10/19 07:04:22;;;;;;;6.88;4.20;;;;;;;;;;10481564;22;20818;-79
2023/10/19 07:09:25;;;;;;;4.97;3.78;;;;;;;;;;10466409;28;20877;-80
2023/10/19 07:14:28;;;;;;;5.82;3.95;;;;;;;;;;10459949;28;20442;-84
2023/10/19 07:19:33;;;;;;;5.30;4.10;;;;;;;;;;10475510;28;20487;-80
2023/10/19 07:24:37;;;;;;;5.18;3.22;;;;;;;;;;10464259;28;20525;-80
2023/10/19 07:29:43;;;;;;;5.10;3.70;;;;;;;;;;10466151;28;20426;-80
2023/10/19 07:34:46;;;;;;;5.65;3.15;;;;;;;;;;10462411;28;20408;-80
2023/10/19 07:39:50;;;;;;;4.90;3.20;;;;;;;;;;10463812;28;20509;-80
2023/10/19 07:44:55;;;;;;;4.43;3.28;;;;;;;;;;10467722;28;20463;-80
2023/10/19 07:49:59;;;;;;;4.85;2.95;;;;;;;;;;10465141;28;20414;-80
2023/10/19 07:55:02;;;;;;;4.15;3.03;;;;;;;;;;10464477;28;20476;-79
2023/10/19 08:00:08;;;;;;;5.32;3.10;;;;;;;;;;10468586;28;20449;-81
2023/10/19 08:05:11;;;;;;;3.90;2.92;;;;;;;;;;10458733;28;20445;-79
2023/10/19 08:10:15;;;;;;;3.60;2.70;;;;;;;;;;10460378;28;20448;-80
2023/10/19 08:15:20;;;;;;;4.95;2.80;;;;;;;;;;10472823;28;20428;-79
2023/10/19 08:20:30;;;;;;;3.80;2.67;;;;;;;;;;10470458;28;20835;-79
2023/10/19 08:25:32;;;;;;;4.38;2.20;;;;;;;;;;10476897;28;20448;-79
2023/10/19 08:30:37;;;;;;;3.47;2.47;;;;;;;;;;10470801;28;20959;-80
2023/10/19 08:35:39;;;;;;;6.03;2.70;;;;;;;;;;10482339;28;20533;-80
2023/10/19 08:40:41;;;;;;;5.10;3.08;;;;;;;;;;10485709;28;20405;-80
2023/10/19 08:45:45;;;;;;;6.00;3.00;;;;;;;;;;10480029;28;20475;-79
2023/10/19 08:50:49;;;;;;;3.25;2.85;;;;;;;;;;10474909;28;20419;-80
2023/10/19 08:55:54;;;;;;;4.83;3.90;;;;;;;;;;10476654;28;20518;-80
2023/10/19 09:00:57;;;;;;;6.97;4.45;;;;;;;;;;10476609;28;20411;-79
2023/10/19 09:06:02;;;;;;;7.20;4.17;;;;;;;;;;10468758;28;20403;-79
2023/10/19 09:11:07;;;;;;;4.47;3.20;;;;;;;;;;10474557;28;21029;-79
2023/10/19 09:16:11;;;;;;;4.25;3.03;;;;;;;;;;10474339;28;20465;-79
2023/10/19 09:21:23;;;;;;;3.47;2.70;;;;;;;;;;10468141;28;21351;-80
2023/10/19 09:26:26;;;;;;;2.50;2.27;;;;;;;;;;10471602;28;20453;-80
2023/10/19 09:31:30;;;;;;;3.28;2.30;;;;;;;;;;10477972;28;20408;-79
2023/10/19 09:36:33;;;;;;;3.17;2.38;;;;;;;;;;10472048;28;20526;-80
2023/10/19 09:41:36;;;;;;;2.55;2.20;;;;;;;;;;10472187;28;20404;-80
2023/10/19 09:46:41;;;;;;;2.47;2.27;;;;;;;;;;10481035;28;20406;-80
2023/10/19 09:51:45;;;;;;;2.60;2.37;;;;;;;;;;10472150;28;20523;-80
2023/10/19 09:56:52;;;;;;;3.40;2.42;;;;;;;;;;10465352;28;20459;-80
2023/10/19 10:02:12;;;;;;;3.30;2.70;;;;;;;;;;10471860;28;20875;-80
2023/10/19 10:07:15;;;;;;;3.15;2.60;;;;;;;;;;10469551;28;20967;-80
2023/10/19 10:12:20;;;;;;;3.85;2.03;;;;;;;;;;10469890;28;20469;-80
2023/10/19 10:17:25;;;;;;;3.83;2.10;;;;;;;;;;10472417;28;20482;-80
2023/10/19 10:22:27;;;;;;;1.80;1.40;;;;;;;;;;10470099;28;20534;-80
2023/10/19 10:27:30;;;;;;;2.22;1.70;;;;;;;;;;10470341;28;20433;-80
2023/10/19 10:32:47;;;;;;;2.20;1.90;;;;;;;;;;10466349;28;20847;-80
2023/10/19 10:37:55;;;;;;;2.80;1.80;;;;;;;;;;10468880;28;20521;-80
2023/10/19 10:43:06;;;;;;;2.60;1.90;;;;;;;;;;10474130;28;20443;-80
2023/10/19 10:48:14;;;;;;;2.25;1.90;;;;;;;;;;10465284;28;20458;-80
2023/10/19 10:53:16;;;;;;;3.53;2.25;;;;;;;;;;10466801;28;20838;-80
2023/10/19 10:58:18;;;;;;;5.28;2.47;;;;;;;;;;10469079;28;20449;-79
2023/10/19 11:03:24;;;;;;;5.38;2.75;;;;;;;;;;10466300;28;20511;-79
2023/10/19 11:08:27;;;;;;;3.50;2.40;;;;;;;;;;10464157;28;20431;-79
2023/10/19 11:13:30;;;;;;;3.67;2.90;;;;;;;;;;10465203;28;20508;-80
2023/10/19 11:18:37;;;;;;;3.53;2.73;;;;;;;;;;10471826;28;20888;-80
2023/10/19 11:23:41;;;;;;;2.85;2.63;;;;;;;;;;10461714;28;20887;-79
2023/10/19 11:28:50;;;;;;;3.10;2.80;;;;;;;;;;10465956;28;20911;-79
2023/10/19 11:33:56;;;;;;;4.47;3.63;;;;;;;;;;10454458;28;20539;-80
2023/10/19 11:38:59;;;;;;;3.58;3.17;;;;;;;;;;10458793;28;20511;-80
2023/10/19 11:44:01;;;;;;;4.25;3.15;;;;;;;;;;10465339;28;20526;-80
2023/10/19 11:49:05;;;;;;;3.80;3.47;;;;;;;;;;10462333;28;20437;-80
2023/10/19 11:54:07;;;;;;;3.50;3.20;;;;;;;;;;10463857;28;20441;-80
2023/10/19 11:59:12;;;;;;;4.18;3.17;;;;;;;;;;10462768;28;21332;-80
2023/10/19 12:04:16;;;;;;;3.50;3.20;;;;;;;;;;10459858;28;20438;-81
2023/10/19 12:09:24;;;;;;;3.87;3.47;;;;;;;;;;10463952;28;21002;-80
2023/10/19 12:14:26;;;;;;;6.28;3.38;;;;;;;;;;10474319;28;20471;-81
2023/10/19 12:19:30;;;;;;;4.13;3.73;;;;;;;;;;10472040;28;20449;-81
2023/10/19 12:24:33;;;;;;;4.38;3.55;;;;;;;;;;10461410;28;20431;-81
2023/10/19 12:29:35;;;;;;;4.78;4.07;;;;;;;;;;10470750;28;21206;-80
2023/10/19 12:34:41;;;;;;;4.80;3.57;;;;;;;;;;10470803;28;20503;-80
2023/10/19 12:39:45;;;;;;;4.88;4.00;;;;;;;;;;10472095;28;20927;-80
2023/10/19 12:44:47;;;;;;;4.47;3.40;;;;;;;;;;10472943;28;20438;-80
2023/10/19 12:49:51;;;;;;;5.30;3.92;;;;;;;;;;10470933;28;20966;-80
2023/10/19 12:54:58;;;;;;;5.40;4.03;;;;;;;;;;10474183;28;20447;-80
2023/10/19 13:00:06;;;;;;;4.87;4.00;;;;;;;;;;10472167;28;20485;-80
2023/10/19 13:05:11;;;;;;;6.07;4.37;;;;;;;;;;10473643;28;20503;-80
2023/10/19 13:10:13;;;;;;;6.87;4.90;;;;;;;;;;10459512;28;20505;-80
2023/10/19 13:15:16;;;;;;;6.63;4.93;;;;;;;;;;10469759;28;20435;-81
2023/10/19 13:20:19;;;;;;;6.47;5.03;;;;;;;;;;10472666;28;20445;-81
2023/10/19 13:25:38;;;;;;;7.15;5.28;;;;;;;;;;10468000;28;20880;-80
2023/10/19 13:30:41;;;;;;;11.77;6.63;;;;;;;;;;10476513;28;20485;-80
2023/10/19 13:35:47;;;;;;;10.23;6.73;;;;;;;;;;10471975;28;20445;-80
2023/10/19 13:40:50;;;;;;;9.98;7.07;;;;;;;;;;10468403;28;20463;-80
2023/10/19 13:45:53;;;;;;;8.30;6.43;;;;;;;;;;10468456;28;20482;-80
2023/10/19 13:51:00;;;;;;;7.40;6.32;;;;;;;;;;10464807;28;20493;-80
2023/10/19 13:56:02;;;;;;;8.63;6.30;;;;;;;;;;10461287;28;20462;-80
2023/10/19 14:01:08;;;;;;;6.60;5.90;;;;;;;;;;10461921;28;21006;-80
2023/10/19 14:06:14;;;;;;;9.77;6.30;;;;;;;;;;10475760;28;20489;-80
2023/10/19 14:11:17;;;;;;;7.85;6.07;;;;;;;;;;10469082;28;20441;-80
2023/10/19 14:16:19;;;;;;;6.90;6.07;;;;;;;;;;10466245;28;20906;-79
2023/10/19 14:21:26;;;;;;;7.00;5.70;;;;;;;;;;10463797;28;20526;-80
2023/10/19 14:26:29;;;;;;;8.88;6.45;;;;;;;;;;10464027;28;20435;-80
2023/10/19 14:31:31;;;;;;;7.45;6.10;;;;;;;;;;10461293;28;21072;-80
2023/10/19 14:36:35;;;;;;;9.00;6.30;;;;;;;;;;10470841;28;20437;-85
2023/10/19 14:41:37;;;;;;;7.83;6.07;;;;;;;;;;10473936;28;20449;-80
2023/10/19 14:46:39;;;;;;;8.43;6.18;;;;;;;;;;10466497;28;20835;-79
2023/10/19 14:51:43;;;;;;;9.63;6.65;;;;;;;;;;10468412;28;20842;-80
2023/10/19 14:56:46;;;;;;;8.00;6.38;;;;;;;;;;10461675;28;20514;-81
2023/10/19 15:01:48;;;;;;;7.73;6.67;;;;;;;;;;10473139;28;20526;-80
2023/10/19 15:06:52;;;;;;;8.65;6.78;;;;;;;;;;10464757;28;20447;-80
2023/10/19 15:11:55;;;;;;;9.65;6.90;;;;;;;;;;10454821;28;20448;-80
2023/10/19 15:16:57;;;;;;;8.52;6.93;;;;;;;;;;10461852;28;20450;-80
2023/10/19 15:22:01;;;;;;;10.38;7.53;;;;;;;;;;10464168;28;20506;-80
2023/10/19 15:27:04;;;;;;;9.33;6.97;;;;;;;;;;10457645;28;20874;-80
2023/10/19 15:32:07;;;;;;;9.48;7.45;;;;;;;;;;10469223;28;20449;-80
2023/10/19 15:37:11;;;;;;;9.13;7.40;;;;;;;;;;10453848;28;20505;-80
2023/10/19 15:42:13;;;;;;;9.90;7.72;;;;;;;;;;10465894;28;20453;-80
2023/10/19 15:47:18;;;;;;;9.85;7.82;;;;;;;;;;10464064;28;20908;-79
2023/10/19 15:52:22;;;;;;;10.63;8.23;;;;;;;;;;10464320;28;20449;-80
2023/10/19 15:57:24;;;;;;;10.55;8.15;;;;;;;;;;10467056;28;20445;-80
2023/10/19 16:02:26;;;;;;;10.05;7.40;;;;;;;;;;10460744;28;20445;-80
2023/10/19 16:07:30;;;;;;;9.80;7.57;;;;;;;;;;10465119;28;20441;-80
2023/10/19 16:12:32;;;;;;;8.83;7.10;;;;;;;;;;10461133;28;20561;-79
2023/10/19 16:17:36;;;;;;;8.27;7.38;;;;;;;;;;10461960;28;20438;-79
2023/10/19 16:22:39;;;;;;;9.33;7.77;;;;;;;;;;10470314;28;20846;-80
2023/10/19 16:27:41;;;;;;;8.98;7.40;;;;;;;;;;10461822;28;20445;-79
2023/10/19 16:32:44;;;;;;;10.10;7.15;;;;;;;;;;10466170;28;20516;-80
2023/10/19 16:37:48;;;;;;;15.40;8.93;;;;;;;;;;10463905;28;20459;-80
2023/10/19 16:42:50;;;;;;;11.30;7.50;;;;;;;;;;10468278;28;20441;-80
2023/10/19 16:47:53;;;;;;;11.30;8.88;;;;;;;;;;10469192;28;20442;-79
2023/10/19 16:52:56;;;;;;;10.85;8.25;;;;;;;;;;10466890;28;20445;-80
2023/10/19 16:58:01;;;;;;;10.18;7.93;;;;;;;;;;10470981;28;20927;-80
2023/10/19 17:03:04;;;;;;;10.45;7.80;;;;;;;;;;10471651;28;20899;-79
2023/10/19 17:08:09;;;;;;;9.23;7.23;;;;;;;;;;10476435;28;20460;-80
2023/10/19 17:13:11;;;;;;;8.10;6.33;;;;;;;;;;10467016;28;20497;-80
2023/10/19 17:18:14;;;;;;;6.63;5.00;;;;;;;;;;10479180;28;21228;-79
2023/10/19 17:23:17;;;;;;;6.05;4.90;;;;;;;;;;10476415;28;20449;-80
2023/10/19 17:28:20;;;;;;;6.53;4.78;;;;;;;;;;10474075;28;21218;-81
2023/10/19 17:33:22;;;;;;;5.03;4.37;;;;;;;;;;10469885;28;20983;-80
2023/10/19 17:38:26;;;;;;;5.40;4.77;;;;;;;;;;10474064;28;20856;-80
2023/10/19 17:43:29;;;;;;;7.95;6.30;;;;;;;;;;10473983;28;20528;-81
2023/10/19 17:48:31;;;;;;;9.97;7.53;;;;;;;;;;10474953;28;20437;-80
2023/10/19 17:53:35;;;;;;;21.40;13.43;;;;;;;;;;10479166;28;20886;-81
2023/10/19 17:58:37;;;;;;;21.65;12.98;;;;;;;;;;10472261;28;20437;-81
2023/10/19 18:03:39;;;;;;;47.70;26.50;;;;;;;;;;10472327;28;20449;-80
2023/10/19 18:14:40;;;;;;;57.30;32.45;;;;;;;;;;10474506;28;20455;-80
2023/10/19 18:19:43;;;;;;;21.47;14.50;;;;;;;;;;10478672;28;20530;-81
2023/10/19 18:24:45;;;;;;;34.40;20.42;;;;;;;;;;10471258;28;20446;-80
2023/10/19 18:29:49;;;;;;;31.38;19.52;;;;;;;;;;10467679;28;20435;-81
2023/10/19 18:34:51;;;;;;;8.98;7.00;;;;;;;;;;10470878;28;20908;-81
2023/10/19 18:39:53;;;;;;;11.90;7.85;;;;;;;;;;10466192;28;20507;-81
2023/10/19 18:44:58;;;;;;;8.73;6.78;;;;;;;;;;10460852;28;20441;-81
2023/10/19 18:50:03;;;;;;;12.40;9.10;;;;;;;;;;10469142;28;20464;-82
2023/10/19 18:55:07;;;;;;;8.90;7.00;;;;;;;;;;10468367;28;20548;-81
2023/10/19 19:00:12;;;;;;;9.50;7.60;;;;;;;;;;10474374;28;20649;-82
2023/10/19 19:05:15;;;;;;;10.23;7.77;;;;;;;;;;10470856;28;20464;-81
2023/10/19 19:10:17;;;;;;;9.63;7.68;;;;;;;;;;10464929;28;21203;-81
2023/10/19 19:15:21;;;;;;;11.77;8.13;;;;;;;;;;10465441;28;20446;-80
2023/10/19 19:20:24;;;;;;;9.13;7.68;;;;;;;;;;10470823;28;20458;-80
2023/10/19 19:25:27;;;;;;;10.80;8.37;;;;;;;;;;10471048;28;20957;-82
2023/10/19 19:30:31;;;;;;;11.20;8.17;;;;;;;;;;10473982;28;20532;-82
2023/10/19 19:35:33;;;;;;;10.03;8.23;;;;;;;;;;10464914;28;20925;-81
2023/10/19 19:40:35;;;;;;;11.33;7.70;;;;;;;;;;10465401;28;20495;-82
2023/10/19 19:45:42;;;;;;;11.75;7.25;;;;;;;;;;10465221;28;20453;-81
2023/10/19 19:50:44;;;;;;;8.13;6.57;;;;;;;;;;10461074;28;21049;-81
2023/10/19 19:55:48;;;;;;;9.05;6.65;;;;;;;;;;10469191;28;20898;-80
2023/10/19 20:00:51;;;;;;;8.27;6.80;;;;;;;;;;10466022;28;20515;-81
2023/10/19 20:05:58;;;;;;;9.20;7.47;;;;;;;;;;10471195;28;20434;-81
2023/10/19 20:11:01;;;;;;;8.57;6.78;;;;;;;;;;10463298;28;20450;-81
2023/10/19 20:16:07;;;;;;;9.52;7.50;;;;;;;;;;10467385;28;20468;-80
2023/10/19 20:21:09;;;;;;;8.33;6.80;;;;;;;;;;10470328;28;20492;-82
2023/10/19 20:26:14;;;;;;;11.27;8.05;;;;;;;;;;10471076;28;20870;-81
2023/10/19 20:31:18;;;;;;;9.82;7.80;;;;;;;;;;10473277;28;20434;-81
2023/10/19 20:36:20;;;;;;;9.05;7.40;;;;;;;;;;10473637;28;20439;-81
2023/10/19 20:41:22;;;;;;;10.23;7.68;;;;;;;;;;10478131;28;20437;-82
2023/10/19 20:46:26;;;;;;;11.98;7.97;;;;;;;;;;10461678;28;20528;-81
2023/10/19 20:51:28;;;;;;;9.73;7.40;;;;;;;;;;10474752;28;20523;-81
2023/10/19 20:56:31;;;;;;;9.13;7.50;;;;;;;;;;10467102;28;20452;-81
2023/10/19 21:01:34;;;;;;;10.82;7.32;;;;;;;;;;10468600;28;20441;-80
2023/10/19 21:06:37;;;;;;;8.83;7.20;;;;;;;;;;10466906;28;20453;-81
2023/10/19 21:11:39;;;;;;;10.10;7.55;;;;;;;;;;10454629;28;20432;-80
2023/10/19 21:16:43;;;;;;;11.40;7.32;;;;;;;;;;10471149;28;20551;-82
2023/10/19 21:21:45;;;;;;;9.25;7.70;;;;;;;;;;10464275;28;20454;-80
2023/10/19 21:26:48;;;;;;;8.20;6.90;;;;;;;;;;10471480;28;20793;-82
2023/10/19 21:31:52;;;;;;;9.02;6.85;;;;;;;;;;10462655;28;20907;-81
2023/10/19 21:36:54;;;;;;;11.95;6.80;;;;;;;;;;10470142;28;20901;-81
2023/10/19 21:41:56;;;;;;;9.03;6.50;;;;;;;;;;10474027;28;21006;-81
2023/10/19 21:47:00;;;;;;;7.65;6.85;;;;;;;;;;10477178;28;20407;-81
2023/10/19 21:52:02;;;;;;;9.00;7.03;;;;;;;;;;10473126;28;20436;-81
2023/10/19 21:57:04;;;;;;;8.73;7.13;;;;;;;;;;10473642;28;21259;-81
2023/10/19 22:02:09;;;;;;;13.80;7.90;;;;;;;;;;10466532;28;20455;-80
2023/10/19 22:07:13;;;;;;;10.13;6.93;;;;;;;;;;10470118;28;20753;-81
2023/10/19 22:12:15;;;;;;;8.55;6.35;;;;;;;;;;10467775;28;20468;-81
2023/10/19 22:17:19;;;;;;;11.43;6.70;;;;;;;;;;10466650;28;20419;-81
2023/10/19 22:22:21;;;;;;;8.23;6.73;;;;;;;;;;10468563;28;20856;-81
2023/10/19 22:27:24;;;;;;;9.98;7.32;;;;;;;;;;10477823;28;20408;-81
2023/10/19 22:32:28;;;;;;;7.97;6.43;;;;;;;;;;10467802;28;20408;-81
2023/10/19 22:37:30;;;;;;;8.38;6.60;;;;;;;;;;10477960;28;20410;-81
2023/10/19 22:42:32;;;;;;;9.32;7.00;;;;;;;;;;10464747;28;20455;-81
2023/10/19 22:47:36;;;;;;;9.55;7.55;;;;;;;;;;10472415;28;20417;-82
2023/10/19 22:52:39;;;;;;;9.02;7.28;;;;;;;;;;10472715;28;20410;-82
2023/10/19 22:57:41;;;;;;;9.10;6.40;;;;;;;;;;10475153;28;20414;-82
2023/10/19 23:02:48;;;;;;;8.10;6.43;;;;;;;;;;10514921;28;20415;-81
2023/10/19 23:07:52;;;;;;;8.07;5.77;;;;;;;;;;10560681;28;20483;-82
2023/10/19 23:12:56;;;;;;;7.03;5.90;;;;;;;;;;10560342;28;21022;-82
2023/10/19 23:18:02;;;;;;;10.83;6.77;;;;;;;;;;10560559;28;20411;-81
2023/10/19 23:23:05;;;;;;;9.40;6.32;;;;;;;;;;10556875;28;20472;-82
2023/10/19 23:28:12;;;;;;;12.48;6.72;;;;;;;;;;10559946;28;20412;-82
2023/10/19 23:33:15;;;;;;;10.40;7.03;;;;;;;;;;10560494;28;20400;-80
2023/10/19 23:38:18;;;;;;;9.03;6.57;;;;;;;;;;10559923;28;20432;-81
2023/10/19 23:43:21;;;;;;;8.15;6.53;;;;;;;;;;10558386;28;20511;-81
2023/10/19 23:48:25;;;;;;;8.60;6.60;;;;;;;;;;10558008;28;20403;-81
2023/10/19 23:53:27;;;;;;;8.88;6.38;;;;;;;;;;10558836;28;20403;-81
2023/10/19 23:58:29;;;;;;;8.52;6.47;;;;;;;;;;10558342;28;20410;-81
